This is the latest recevied weather packets stored in our database for station/object IQ5QD-13. If no packets are shown the sender has not sent any weather packets the latest 10 day(s).
| Time | Temp. | Humidity | Pressure | Rain* | Wind** | Luminosity | Snow |
|---|---|---|---|---|---|---|---|
| 1777897533 | 22.22° C | 46% | 1013.5 hPa | 0 mm | - | 724 W/m² | - |
| 1777895165 | 23.33° C | 44% | 1013.8 hPa | 0 mm | - | 619 W/m² | - |
| 1777894522 | 23.33° C | 43% | 1013.9 hPa | 0 mm | - | 584 W/m² | - |
| 1777892173 | 22.22° C | 43% | 1014.2 hPa | 0 mm | - | 428 W/m² | - |
| 1777885546 | 20° C | 55% | 1014.9 hPa | 0 mm | - | 486 W/m² | - |
| 1777884973 | 18.89° C | 60% | 1014.8 hPa | 0 mm | - | 534 W/m² | - |
| 1777882539 | 16.67° C | 71% | 1015 hPa | 0 mm | - | 319 W/m² | - |
| 1777881966 | 16.11° C | 73% | 1014.9 hPa | 0 mm | - | 286 W/m² | - |
| 1777880173 | 15° C | 75% | 1015 hPa | 0 mm | - | 293 W/m² | - |
| 1777878957 | 14.44° C | 75% | 1015.1 hPa | 0 mm | - | 224 W/m² | - |
| 1777874122 | 10° C | 84% | 1015.1 hPa | 0 mm | - | 84 W/m² | - |
| 1777871758 | 8.33° C | 90% | 1014.9 hPa | 0 mm | - | 43 W/m² | - |
| 1777857986 | 7.78° C | 90% | 1014.3 hPa | 0 mm | - | 0 W/m² | - |
| 1777857326 | 8.33° C | 90% | 1014.2 hPa | 0 mm | - | 0 W/m² | - |
| 1777856767 | 8.33° C | 90% | 1014.3 hPa | 0 mm | - | 0 W/m² | - |
| 1777855547 | 8.89° C | 89% | 1014.2 hPa | 0 mm | - | 0 W/m² | - |
| 1777853778 | 8.89° C | 89% | 1014.3 hPa | 0 mm | - | 0 W/m² | - |
| 1777853118 | 9.44° C | 89% | 1014.4 hPa | 0 mm | - | 0 W/m² | - |
| 1777850176 | 9.44° C | 86% | 1014.8 hPa | 0 mm | - | 0 W/m² | - |
| 1777845919 | 10.56° C | 82% | 1014.9 hPa | 0 mm | - | 0 W/m² | - |
| 1777843566 | 11.67° C | 80% | 1014.6 hPa | 0 mm | - | 0 W/m² | - |
| 1777842368 | 11.67° C | 78% | 1014.5 hPa | 0 mm | - | 0 W/m² | - |
| 1777836943 | 13.89° C | 72% | 1014.2 hPa | 0 mm | - | 0 W/m² | - |
| 1777836347 | 14.44° C | 69% | 1014.1 hPa | 0 mm | - | 0 W/m² | - |
| 1777829774 | 20° C | 54% | 1013.4 hPa | 0 mm | - | 33 W/m² | - |
* Rain latest hour (hover to see other rain measurements)
** Current wind speed in m/s (hover to see current wind gust speed)